sensor_id;sensor_type;location;lat;lon;timestamp;pressure;altitude;pressure_sealevel;temperature;humidity
73455;BME280;61690;51.824;6.306;2023-04-28T00:00:48;101325.28;;;17.22;46.12
73455;BME280;61690;51.824;6.306;2023-04-28T00:03:15;101326.28;;;17.20;45.98
73455;BME280;61690;51.824;6.306;2023-04-28T00:05:40;101317.53;;;17.19;46.14
73455;BME280;61690;51.824;6.306;2023-04-28T00:08:06;101304.41;;;17.19;45.89
73455;BME280;61690;51.824;6.306;2023-04-28T00:10:31;101295.81;;;17.16;46.30
73455;BME280;61690;51.824;6.306;2023-04-28T00:12:58;101288.03;;;17.14;46.03
73455;BME280;61690;51.824;6.306;2023-04-28T00:15:23;101283.56;;;17.16;45.93
73455;BME280;61690;51.824;6.306;2023-04-28T00:17:49;101283.56;;;17.16;46.25
73455;BME280;61690;51.824;6.306;2023-04-28T00:20:15;101282.09;;;17.11;46.26
73455;BME280;61690;51.824;6.306;2023-04-28T00:22:41;101283.56;;;17.16;46.23
73455;BME280;61690;51.824;6.306;2023-04-28T00:25:07;101268.78;;;17.14;45.95
73455;BME280;61690;51.824;6.306;2023-04-28T00:27:33;101274.09;;;17.12;46.05
73455;BME280;61690;51.824;6.306;2023-04-28T00:29:58;101276.91;;;17.09;45.98
73455;BME280;61690;51.824;6.306;2023-04-28T00:32:24;101278.44;;;17.13;45.86
73455;BME280;61690;51.824;6.306;2023-04-28T00:34:49;101277.75;;;17.10;46.03
73455;BME280;61690;51.824;6.306;2023-04-28T00:37:15;101263.84;;;17.08;46.20
73455;BME280;61690;51.824;6.306;2023-04-28T00:39:42;101255.81;;;17.11;46.11
73455;BME280;61690;51.824;6.306;2023-04-28T00:42:11;101256.66;;;17.11;46.17
73455;BME280;61690;51.824;6.306;2023-04-28T00:44:36;101255.06;;;17.09;45.95
73455;BME280;61690;51.824;6.306;2023-04-28T00:47:02;101260.31;;;17.09;45.89
73455;BME280;61690;51.824;6.306;2023-04-28T00:49:27;101250.72;;;17.08;46.29
73455;BME280;61690;51.824;6.306;2023-04-28T00:51:53;101241.38;;;17.02;46.27
73455;BME280;61690;51.824;6.306;2023-04-28T00:54:19;101240.47;;;17.03;46.08
73455;BME280;61690;51.824;6.306;2023-04-28T00:56:45;101241.09;;;17.07;46.06
73455;BME280;61690;51.824;6.306;2023-04-28T00:59:11;101244.69;;;17.05;45.93
73455;BME280;61690;51.824;6.306;2023-04-28T01:01:37;101245.72;;;17.03;46.41
73455;BME280;61690;51.824;6.306;2023-04-28T01:04:02;101232.56;;;17.03;46.26
73455;BME280;61690;51.824;6.306;2023-04-28T01:06:29;101224.69;;;17.03;46.38
73455;BME280;61690;51.824;6.306;2023-04-28T01:08:56;101221.94;;;17.04;46.27
73455;BME280;61690;51.824;6.306;2023-04-28T01:11:21;101218.66;;;17.01;46.26
73455;BME280;61690;51.824;6.306;2023-04-28T01:13:46;101219.44;;;17.03;45.95
73455;BME280;61690;51.824;6.306;2023-04-28T01:16:12;101216.88;;;17.01;46.26
73455;BME280;61690;51.824;6.306;2023-04-28T01:18:37;101216.88;;;17.01;46.28
73455;BME280;61690;51.824;6.306;2023-04-28T01:21:03;101208.38;;;16.96;46.56
73455;BME280;61690;51.824;6.306;2023-04-28T01:23:28;101208.31;;;16.98;46.44
73455;BME280;61690;51.824;6.306;2023-04-28T01:25:54;101207.53;;;16.96;46.12
73455;BME280;61690;51.824;6.306;2023-04-28T01:28:19;101203.97;;;16.97;46.13
73455;BME280;61690;51.824;6.306;2023-04-28T01:30:44;101210.09;;;16.97;46.21
73455;BME280;61690;51.824;6.306;2023-04-28T01:33:10;101215.34;;;16.97;46.46
73455;BME280;61690;51.824;6.306;2023-04-28T01:35:35;101212.78;;;16.96;46.38
73455;BME280;61690;51.824;6.306;2023-04-28T01:38:01;101209.56;;;16.91;46.03
73455;BME280;61690;51.824;6.306;2023-04-28T01:40:27;101216.34;;;16.95;46.37
73455;BME280;61690;51.824;6.306;2023-04-28T01:42:52;101211.97;;;16.95;46.36
73455;BME280;61690;51.824;6.306;2023-04-28T01:45:18;101201.53;;;16.94;46.06
73455;BME280;61690;51.824;6.306;2023-04-28T01:47:43;101189.28;;;16.93;46.14
73455;BME280;61690;51.824;6.306;2023-04-28T01:50:08;101185.84;;;16.92;46.32
73455;BME280;61690;51.824;6.306;2023-04-28T01:52:34;101187.44;;;16.95;46.09
73455;BME280;61690;51.824;6.306;2023-04-28T01:55:00;101187.63;;;16.92;46.03
73455;BME280;61690;51.824;6.306;2023-04-28T01:57:26;101175.25;;;16.94;46.15
73455;BME280;61690;51.824;6.306;2023-04-28T01:59:53;101178.09;;;16.89;46.07
73455;BME280;61690;51.824;6.306;2023-04-28T02:02:19;101174.63;;;16.89;45.65
73455;BME280;61690;51.824;6.306;2023-04-28T02:04:45;101176.22;;;16.91;46.08
73455;BME280;61690;51.824;6.306;2023-04-28T02:07:10;101171.78;;;16.93;46.30
73455;BME280;61690;51.824;6.306;2023-04-28T02:09:35;101174.63;;;16.89;46.50
73455;BME280;61690;51.824;6.306;2023-04-28T02:12:01;101173.88;;;16.87;46.34
73455;BME280;61690;51.824;6.306;2023-04-28T02:14:27;101187.69;;;16.90;46.13
73455;BME280;61690;51.824;6.306;2023-04-28T02:16:52;101185.06;;;16.90;46.12
73455;BME280;61690;51.824;6.306;2023-04-28T02:19:18;101182.38;;;16.92;46.20
73455;BME280;61690;51.824;6.306;2023-04-28T02:21:43;101180.66;;;16.91;46.05
73455;BME280;61690;51.824;6.306;2023-04-28T02:24:08;101174.47;;;16.92;46.03
73455;BME280;61690;51.824;6.306;2023-04-28T02:26:33;101165.16;;;16.86;46.33
73455;BME280;61690;51.824;6.306;2023-04-28T02:28:59;101166.00;;;16.87;46.37
73455;BME280;61690;51.824;6.306;2023-04-28T02:31:25;101159.03;;;16.85;46.44
73455;BME280;61690;51.824;6.306;2023-04-28T02:33:50;101167.09;;;16.82;46.14
73455;BME280;61690;51.824;6.306;2023-04-28T02:36:15;101168.63;;;16.87;46.13
73455;BME280;61690;51.824;6.306;2023-04-28T02:38:41;101169.72;;;16.82;46.23
73455;BME280;61690;51.824;6.306;2023-04-28T02:41:07;101166.13;;;16.83;46.36
73455;BME280;61690;51.824;6.306;2023-04-28T02:43:36;101162.59;;;16.84;46.50
73455;BME280;61690;51.824;6.306;2023-04-28T02:46:02;101166.00;;;16.87;46.05
73455;BME280;61690;51.824;6.306;2023-04-28T02:48:28;101169.72;;;16.82;46.03
73455;BME280;61690;51.824;6.306;2023-04-28T02:50:53;101166.13;;;16.83;46.24
73455;BME280;61690;51.824;6.306;2023-04-28T02:53:20;101157.41;;;16.83;46.03
73455;BME280;61690;51.824;6.306;2023-04-28T02:55:47;101153.94;;;16.82;46.06
73455;BME280;61690;51.824;6.306;2023-04-28T02:58:13;101148.81;;;16.79;46.24
73455;BME280;61690;51.824;6.306;2023-04-28T03:00:38;101141.88;;;16.78;46.40
73455;BME280;61690;51.824;6.306;2023-04-28T03:03:04;101143.44;;;16.82;46.14
73455;BME280;61690;51.824;6.306;2023-04-28T03:05:29;101140.56;;;16.87;46.30
73455;BME280;61690;51.824;6.306;2023-04-28T03:07:56;101132.25;;;16.95;45.91
73455;BME280;61690;51.824;6.306;2023-04-28T03:10:23;101128.03;;;17.08;45.60
73455;BME280;61690;51.824;6.306;2023-04-28T03:12:48;101118.53;;;17.21;45.57
73455;BME280;61690;51.824;6.306;2023-04-28T03:15:14;101107.22;;;17.35;44.90
73455;BME280;61690;51.824;6.306;2023-04-28T03:17:39;101098.66;;;17.48;44.78
73455;BME280;61690;51.824;6.306;2023-04-28T03:20:08;101102.34;;;17.59;44.91
73455;BME280;61690;51.824;6.306;2023-04-28T03:22:33;101089.59;;;17.68;44.32
73455;BME280;61690;51.824;6.306;2023-04-28T03:24:59;101082.94;;;17.76;44.18
73455;BME280;61690;51.824;6.306;2023-04-28T03:27:25;101083.28;;;17.86;43.96
73455;BME280;61690;51.824;6.306;2023-04-28T03:29:50;101072.38;;;17.92;44.07
73455;BME280;61690;51.824;6.306;2023-04-28T03:32:16;101065.91;;;17.98;43.84
73455;BME280;61690;51.824;6.306;2023-04-28T03:34:41;101065.53;;;18.04;44.02
73455;BME280;61690;51.824;6.306;2023-04-28T03:37:06;101064.16;;;18.13;43.51
73455;BME280;61690;51.824;6.306;2023-04-28T03:39:32;101050.50;;;18.20;43.81
73455;BME280;61690;51.824;6.306;2023-04-28T03:41:57;101052.84;;;18.25;43.56
73455;BME280;61690;51.824;6.306;2023-04-28T03:44:22;101061.31;;;18.30;43.53
73455;BME280;61690;51.824;6.306;2023-04-28T03:46:48;101067.16;;;18.35;43.44
73455;BME280;61690;51.824;6.306;2023-04-28T03:49:14;101076.56;;;18.39;43.32
73455;BME280;61690;51.824;6.306;2023-04-28T03:51:39;101078.06;;;18.44;43.34
73455;BME280;61690;51.824;6.306;2023-04-28T03:54:06;101078.63;;;18.49;43.63
73455;BME280;61690;51.824;6.306;2023-04-28T03:56:32;101077.50;;;18.53;43.13
73455;BME280;61690;51.824;6.306;2023-04-28T03:58:58;101080.66;;;18.58;42.86
73455;BME280;61690;51.824;6.306;2023-04-28T04:01:24;101075.03;;;18.64;43.08
73455;BME280;61690;51.824;6.306;2023-04-28T04:03:50;101071.25;;;18.68;42.93
73455;BME280;61690;51.824;6.306;2023-04-28T04:06:15;101065.03;;;18.69;43.15
73455;BME280;61690;51.824;6.306;2023-04-28T04:08:41;101059.75;;;18.69;42.79
73455;BME280;61690;51.824;6.306;2023-04-28T04:11:06;101065.03;;;18.69;43.26
73455;BME280;61690;51.824;6.306;2023-04-28T04:13:32;101067.66;;;18.69;42.69
73455;BME280;61690;51.824;6.306;2023-04-28T04:15:57;101063.44;;;18.67;43.32
73455;BME280;61690;51.824;6.306;2023-04-28T04:18:23;101063.53;;;18.65;42.98
73455;BME280;61690;51.824;6.306;2023-04-28T04:20:49;101063.63;;;18.64;43.15
73455;BME280;61690;51.824;6.306;2023-04-28T04:23:15;101051.09;;;18.67;43.38
73455;BME280;61690;51.824;6.306;2023-04-28T04:25:41;101048.28;;;18.70;43.25
73455;BME280;61690;51.824;6.306;2023-04-28T04:28:06;101053.91;;;18.78;42.97
73455;BME280;61690;51.824;6.306;2023-04-28T04:30:32;101044.72;;;18.86;42.69
73455;BME280;61690;51.824;6.306;2023-04-28T04:32:59;101053.19;;;18.91;42.77
73455;BME280;61690;51.824;6.306;2023-04-28T04:35:24;101044.97;;;18.95;42.51
73455;BME280;61690;51.824;6.306;2023-04-28T04:37:51;101047.41;;;18.98;42.83
73455;BME280;61690;51.824;6.306;2023-04-28T04:40:16;101046.34;;;19.01;42.49
73455;BME280;61690;51.824;6.306;2023-04-28T04:42:42;101042.00;;;19.00;43.11
73455;BME280;61690;51.824;6.306;2023-04-28T04:45:08;101037.13;;;19.08;42.58
73455;BME280;61690;51.824;6.306;2023-04-28T04:47:34;101033.31;;;19.12;42.42
73455;BME280;61690;51.824;6.306;2023-04-28T04:49:59;101029.72;;;19.13;42.71
73455;BME280;61690;51.824;6.306;2023-04-28T04:52:26;101021.94;;;19.25;43.43
73455;BME280;61690;51.824;6.306;2023-04-28T04:54:51;101024.81;;;19.34;43.52
73455;BME280;61690;51.824;6.306;2023-04-28T04:57:17;101018.19;;;19.42;43.69
73455;BME280;61690;51.824;6.306;2023-04-28T04:59:42;101022.41;;;19.44;44.00
73455;BME280;61690;51.824;6.306;2023-04-28T05:02:08;101025.78;;;19.46;43.61
73455;BME280;61690;51.824;6.306;2023-04-28T05:04:33;101026.75;;;19.45;43.27
73455;BME280;61690;51.824;6.306;2023-04-28T05:06:59;101022.22;;;19.47;42.95
73455;BME280;61690;51.824;6.306;2023-04-28T05:09:25;101017.03;;;19.46;43.45
73455;BME280;61690;51.824;6.306;2023-04-28T05:11:50;101026.94;;;19.42;43.05
73455;BME280;61690;51.824;6.306;2023-04-28T05:14:15;101031.28;;;19.43;43.17
73455;BME280;61690;51.824;6.306;2023-04-28T05:16:43;101024.84;;;19.47;43.29
73455;BME280;61690;51.824;6.306;2023-04-28T05:19:09;101026.75;;;19.45;43.71
73455;BME280;61690;51.824;6.306;2023-04-28T05:21:34;101013.47;;;19.47;43.62
73455;BME280;61690;51.824;6.306;2023-04-28T05:24:00;101017.69;;;19.49;43.66
73455;BME280;61690;51.824;6.306;2023-04-28T05:26:26;101013.25;;;19.50;44.24
73455;BME280;61690;51.824;6.306;2023-04-28T05:28:55;101007.88;;;19.51;43.97
73455;BME280;61690;51.824;6.306;2023-04-28T05:31:21;101012.91;;;19.42;44.27
73455;BME280;61690;51.824;6.306;2023-04-28T05:33:46;101007.44;;;19.45;44.25
73455;BME280;61690;51.824;6.306;2023-04-28T05:36:12;101005.56;;;19.47;44.31
73455;BME280;61690;51.824;6.306;2023-04-28T05:38:38;101008.06;;;19.48;44.28
73455;BME280;61690;51.824;6.306;2023-04-28T05:41:03;101010.69;;;19.48;44.81
73455;BME280;61690;51.824;6.306;2023-04-28T05:43:29;101002.78;;;19.48;44.40
73455;BME280;61690;51.824;6.306;2023-04-28T05:45:54;100999.31;;;19.48;44.68
73455;BME280;61690;51.824;6.306;2023-04-28T05:48:20;100988.75;;;19.48;45.35
73455;BME280;61690;51.824;6.306;2023-04-28T05:50:45;100988.75;;;19.48;45.50
73455;BME280;61690;51.824;6.306;2023-04-28T05:53:11;100994.13;;;19.46;45.19
73455;BME280;61690;51.824;6.306;2023-04-28T05:55:36;100994.56;;;19.40;45.44
73455;BME280;61690;51.824;6.306;2023-04-28T05:58:03;100994.47;;;19.42;45.69
73455;BME280;61690;51.824;6.306;2023-04-28T06:00:28;100990.75;;;19.44;45.87
73455;BME280;61690;51.824;6.306;2023-04-28T06:02:54;100991.41;;;19.35;45.59
73455;BME280;61690;51.824;6.306;2023-04-28T06:05:20;100975.78;;;19.57;45.20
73455;BME280;61690;51.824;6.306;2023-04-28T06:07:46;100966.91;;;19.46;45.49
73455;BME280;61690;51.824;6.306;2023-04-28T06:10:11;100981.03;;;19.32;45.72
73455;BME280;61690;51.824;6.306;2023-04-28T06:12:39;100974.47;;;19.25;45.48
73455;BME280;61690;51.824;6.306;2023-04-28T06:15:05;100976.59;;;19.19;45.34
73455;BME280;61690;51.824;6.306;2023-04-28T06:17:31;100971.09;;;19.23;45.98
73455;BME280;61690;51.824;6.306;2023-04-28T06:19:57;100985.03;;;19.25;45.63
73455;BME280;61690;51.824;6.306;2023-04-28T06:22:24;100987.56;;;19.26;45.86
73455;BME280;61690;51.824;6.306;2023-04-28T06:24:50;100994.66;;;19.26;45.90
73455;BME280;61690;51.824;6.306;2023-04-28T06:27:16;100991.16;;;19.25;45.77
73455;BME280;61690;51.824;6.306;2023-04-28T06:29:43;100998.22;;;19.25;46.21
73455;BME280;61690;51.824;6.306;2023-04-28T06:32:09;100997.28;;;19.26;46.36
73455;BME280;61690;51.824;6.306;2023-04-28T06:34:36;100994.66;;;19.26;46.55
73455;BME280;61690;51.824;6.306;2023-04-28T06:37:03;100997.47;;;19.23;46.34
73455;BME280;61690;51.824;6.306;2023-04-28T06:39:30;100988.63;;;19.24;46.73
73455;BME280;61690;51.824;6.306;2023-04-28T06:41:55;100989.78;;;19.19;46.94
73455;BME280;61690;51.824;6.306;2023-04-28T06:44:21;100974.72;;;19.22;47.04
73455;BME280;61690;51.824;6.306;2023-04-28T06:46:47;100977.44;;;19.20;46.95
73455;BME280;61690;51.824;6.306;2023-04-28T06:49:12;100981.88;;;19.19;46.72
73455;BME280;61690;51.824;6.306;2023-04-28T06:51:37;100985.44;;;19.18;46.91
73455;BME280;61690;51.824;6.306;2023-04-28T06:54:03;100979.63;;;19.13;47.16
73455;BME280;61690;51.824;6.306;2023-04-28T06:56:29;100977.22;;;19.10;46.88
73455;BME280;61690;51.824;6.306;2023-04-28T06:58:55;100978.47;;;19.05;47.60
73455;BME280;61690;51.824;6.306;2023-04-28T07:01:23;100986.09;;;19.22;47.52
73455;BME280;61690;51.824;6.306;2023-04-28T07:03:49;100979.16;;;19.47;47.28
73455;BME280;61690;51.824;6.306;2023-04-28T07:06:15;100969.47;;;19.73;47.01
73455;BME280;61690;51.824;6.306;2023-04-28T07:08:42;100967.78;;;19.85;46.59
73455;BME280;61690;51.824;6.306;2023-04-28T07:11:08;100970.94;;;20.03;47.09
73455;BME280;61690;51.824;6.306;2023-04-28T07:13:34;100968.06;;;20.18;46.88
73455;BME280;61690;51.824;6.306;2023-04-28T07:15:59;100969.84;;;20.31;46.91
73455;BME280;61690;51.824;6.306;2023-04-28T07:18:25;100965.56;;;20.41;47.15
73455;BME280;61690;51.824;6.306;2023-04-28T07:20:50;100966.59;;;20.51;46.53
73455;BME280;61690;51.824;6.306;2023-04-28T07:23:16;100959.59;;;20.63;46.26
73455;BME280;61690;51.824;6.306;2023-04-28T07:25:42;100959.03;;;20.71;46.72
73455;BME280;61690;51.824;6.306;2023-04-28T07:28:08;100959.91;;;20.59;46.82
73455;BME280;61690;51.824;6.306;2023-04-28T07:30:33;100963.31;;;20.48;47.13
73455;BME280;61690;51.824;6.306;2023-04-28T07:32:59;100963.56;;;20.45;47.35
73455;BME280;61690;51.824;6.306;2023-04-28T07:35:26;100969.06;;;20.42;47.39
73455;BME280;61690;51.824;6.306;2023-04-28T07:37:51;100968.22;;;20.41;47.33
73455;BME280;61690;51.824;6.306;2023-04-28T07:40:17;100964.94;;;20.37;47.61
73455;BME280;61690;51.824;6.306;2023-04-28T07:42:43;100968.56;;;20.36;48.00
73455;BME280;61690;51.824;6.306;2023-04-28T07:45:13;100960.84;;;20.33;48.03
73455;BME280;61690;51.824;6.306;2023-04-28T07:47:38;100960.94;;;20.32;48.14
73455;BME280;61690;51.824;6.306;2023-04-28T07:50:04;100961.06;;;20.30;48.30
73455;BME280;61690;51.824;6.306;2023-04-28T07:52:31;100967.31;;;20.29;47.99
73455;BME280;61690;51.824;6.306;2023-04-28T07:54:57;100968.34;;;20.27;48.32
73455;BME280;61690;51.824;6.306;2023-04-28T07:57:22;100964.03;;;20.26;48.55
73455;BME280;61690;51.824;6.306;2023-04-28T07:59:48;100951.78;;;20.25;48.17
73455;BME280;61690;51.824;6.306;2023-04-28T08:02:14;100943.97;;;20.23;48.42
73455;BME280;61690;51.824;6.306;2023-04-28T08:04:39;100945.53;;;20.26;48.35
73455;BME280;61690;51.824;6.306;2023-04-28T08:07:04;100951.91;;;20.23;48.88
73455;BME280;61690;51.824;6.306;2023-04-28T08:09:30;100956.22;;;20.24;48.56
73455;BME280;61690;51.824;6.306;2023-04-28T08:11:56;100955.47;;;20.22;49.15
73455;BME280;61690;51.824;6.306;2023-04-28T08:14:23;100949.69;;;20.17;49.42
73455;BME280;61690;51.824;6.306;2023-04-28T08:16:49;100943.44;;;20.18;49.03
73455;BME280;61690;51.824;6.306;2023-04-28T08:19:16;100939.84;;;20.19;49.22
73455;BME280;61690;51.824;6.306;2023-04-28T08:21:41;100947.75;;;20.19;49.03
73455;BME280;61690;51.824;6.306;2023-04-28T08:24:07;100952.31;;;20.17;49.42
73455;BME280;61690;51.824;6.306;2023-04-28T08:26:35;100944.53;;;20.15;49.31
73455;BME280;61690;51.824;6.306;2023-04-28T08:29:00;100954.03;;;20.18;49.15
73455;BME280;61690;51.824;6.306;2023-04-28T08:31:26;100955.09;;;20.15;49.67
73455;BME280;61690;51.824;6.306;2023-04-28T08:33:53;100950.13;;;20.11;49.51
73455;BME280;61690;51.824;6.306;2023-04-28T08:36:18;100945.19;;;20.06;49.66
73455;BME280;61690;51.824;6.306;2023-04-28T08:38:45;100945.28;;;20.05;49.93
73455;BME280;61690;51.824;6.306;2023-04-28T08:41:15;100944.31;;;20.06;49.66
73455;BME280;61690;51.824;6.306;2023-04-28T08:43:41;100935.34;;;20.08;50.13
73455;BME280;61690;51.824;6.306;2023-04-28T08:46:08;100942.44;;;20.08;49.86
73455;BME280;61690;51.824;6.306;2023-04-28T08:48:42;100943.91;;;20.12;49.91
73455;BME280;61690;51.824;6.306;2023-04-28T08:51:21;100937.75;;;20.11;49.93
73455;BME280;61690;51.824;6.306;2023-04-28T08:53:52;100944.94;;;20.09;50.15
73455;BME280;61690;51.824;6.306;2023-04-28T08:56:20;100943.47;;;20.05;50.53
73455;BME280;61690;51.824;6.306;2023-04-28T08:58:52;100941.91;;;20.03;50.54
73455;BME280;61690;51.824;6.306;2023-04-28T09:01:18;100944.75;;;20.00;50.61
73455;BME280;61690;51.824;6.306;2023-04-28T09:03:45;100940.88;;;19.92;50.36
73455;BME280;61690;51.824;6.306;2023-04-28T09:06:12;100943.72;;;19.89;50.10
73455;BME280;61690;51.824;6.306;2023-04-28T09:08:37;100954.28;;;19.89;49.81
73455;BME280;61690;51.824;6.306;2023-04-28T09:11:10;100942.25;;;19.85;49.73
73455;BME280;61690;51.824;6.306;2023-04-28T09:13:37;100944.16;;;19.83;49.59
73455;BME280;61690;51.824;6.306;2023-04-28T09:16:04;100935.50;;;19.81;49.57
73455;BME280;61690;51.824;6.306;2023-04-28T09:18:30;100942.88;;;19.76;49.71
73455;BME280;61690;51.824;6.306;2023-04-28T09:21:08;100935.81;;;19.76;49.67
73455;BME280;61690;51.824;6.306;2023-04-28T09:23:54;100934.78;;;19.79;49.32
73455;BME280;61690;51.824;6.306;2023-04-28T09:26:19;100936.25;;;19.83;49.35
73455;BME280;61690;51.824;6.306;2023-04-28T09:28:45;100936.00;;;19.86;49.80
73455;BME280;61690;51.824;6.306;2023-04-28T09:31:24;100928.81;;;19.88;49.93
73455;BME280;61690;51.824;6.306;2023-04-28T09:33:57;100926.19;;;19.88;49.42
73455;BME280;61690;51.824;6.306;2023-04-28T09:36:28;100930.41;;;19.91;49.56
73455;BME280;61690;51.824;6.306;2023-04-28T09:38:57;100927.53;;;19.94;50.00
73455;BME280;61690;51.824;6.306;2023-04-28T09:41:37;100933.69;;;19.94;49.75
73455;BME280;61690;51.824;6.306;2023-04-28T09:44:12;100928.19;;;19.97;49.92
73455;BME280;61690;51.824;6.306;2023-04-28T09:46:41;100929.16;;;19.96;50.20
73455;BME280;61690;51.824;6.306;2023-04-28T09:49:08;100931.66;;;19.98;50.39
73455;BME280;61690;51.824;6.306;2023-04-28T09:51:34;100922.16;;;19.95;50.71
73455;BME280;61690;51.824;6.306;2023-04-28T09:54:00;100919.00;;;19.90;50.23
73455;BME280;61690;51.824;6.306;2023-04-28T09:56:27;100923.22;;;19.93;50.39
73455;BME280;61690;51.824;6.306;2023-04-28T09:58:56;100919.41;;;19.97;49.95
73455;BME280;61690;51.824;6.306;2023-04-28T10:01:24;100918.59;;;19.96;50.34
73455;BME280;61690;51.824;6.306;2023-04-28T10:03:51;100920.25;;;19.97;50.35
73455;BME280;61690;51.824;6.306;2023-04-28T10:06:17;100919.31;;;19.98;50.57
73455;BME280;61690;51.824;6.306;2023-04-28T10:08:43;100921.00;;;20.00;50.68
73455;BME280;61690;51.824;6.306;2023-04-28T10:11:15;100908.53;;;20.02;50.62
73455;BME280;61690;51.824;6.306;2023-04-28T10:13:42;100917.41;;;20.01;50.62
73455;BME280;61690;51.824;6.306;2023-04-28T10:16:14;100913.94;;;20.00;50.67
73455;BME280;61690;51.824;6.306;2023-04-28T10:18:42;100914.66;;;20.02;50.53
73455;BME280;61690;51.824;6.306;2023-04-28T10:21:07;100911.16;;;20.02;50.73
73455;BME280;61690;51.824;6.306;2023-04-28T10:24:14;100912.84;;;20.03;51.10
73455;BME280;61690;51.824;6.306;2023-04-28T10:27:02;100917.31;;;20.02;50.58
73455;BME280;61690;51.824;6.306;2023-04-28T10:29:32;100911.88;;;20.04;50.72
73455;BME280;61690;51.824;6.306;2023-04-28T10:32:19;100909.25;;;20.04;50.89
73455;BME280;61690;51.824;6.306;2023-04-28T10:34:46;100902.19;;;20.04;50.94
73455;BME280;61690;51.824;6.306;2023-04-28T10:37:12;100898.47;;;20.07;50.81
73455;BME280;61690;51.824;6.306;2023-04-28T10:40:47;100904.50;;;20.09;50.99
73455;BME280;61690;51.824;6.306;2023-04-28T10:42:52;100908.94;;;20.08;50.78
73455;BME280;61690;51.824;6.306;2023-04-28T10:56:26;100907.56;;;20.03;50.93
73455;BME280;61690;51.824;6.306;2023-04-28T10:58:57;100907.47;;;20.04;50.72
73455;BME280;61690;51.824;6.306;2023-04-28T11:01:24;100902.28;;;20.03;51.02
73455;BME280;61690;51.824;6.306;2023-04-28T11:03:57;100902.50;;;20.00;51.07
73455;BME280;61690;51.824;6.306;2023-04-28T11:06:33;100907.16;;;19.96;50.51
73455;BME280;61690;51.824;6.306;2023-04-28T11:19:36;100905.94;;;19.89;50.16
73455;BME280;61690;51.824;6.306;2023-04-28T11:22:16;100907.69;;;19.88;49.73
73455;BME280;61690;51.824;6.306;2023-04-28T11:25:00;100898.09;;;19.87;49.52
73455;BME280;61690;51.824;6.306;2023-04-28T11:27:28;100902.56;;;19.87;49.83
73455;BME280;61690;51.824;6.306;2023-04-28T11:29:54;100902.75;;;19.84;49.52
73455;BME280;61690;51.824;6.306;2023-04-28T11:32:33;100902.88;;;19.82;49.41
73455;BME280;61690;51.824;6.306;2023-04-28T11:35:00;100902.03;;;19.82;49.30
73455;BME280;61690;51.824;6.306;2023-04-28T11:37:26;100905.50;;;19.82;49.49
73455;BME280;61690;51.824;6.306;2023-04-28T11:39:52;100895.78;;;19.83;49.11
73455;BME280;61690;51.824;6.306;2023-04-28T11:42:17;100902.88;;;19.82;48.87
73455;BME280;61690;51.824;6.306;2023-04-28T11:44:52;100905.50;;;19.82;48.89
73455;BME280;61690;51.824;6.306;2023-04-28T11:47:29;100908.13;;;19.82;48.71
73455;BME280;61690;51.824;6.306;2023-04-28T11:49:55;100903.09;;;19.79;49.09
73455;BME280;61690;51.824;6.306;2023-04-28T11:52:21;100898.84;;;19.76;48.77
73455;BME280;61690;51.824;6.306;2023-04-28T11:54:52;100911.22;;;19.76;48.91
73455;BME280;61690;51.824;6.306;2023-04-28T11:57:18;100898.97;;;19.75;48.89
73455;BME280;61690;51.824;6.306;2023-04-28T11:59:44;100908.69;;;19.74;48.66
73455;BME280;61690;51.824;6.306;2023-04-28T12:02:10;100911.41;;;19.73;48.91
73455;BME280;61690;51.824;6.306;2023-04-28T12:04:40;100906.03;;;19.74;48.85
73455;BME280;61690;51.824;6.306;2023-04-28T12:07:11;100908.78;;;19.73;48.83
73455;BME280;61690;51.824;6.306;2023-04-28T12:09:44;100907.13;;;19.72;48.40
73455;BME280;61690;51.824;6.306;2023-04-28T12:12:26;100910.75;;;19.69;48.32
73455;BME280;61690;51.824;6.306;2023-04-28T12:14:54;100905.47;;;19.69;48.32
73455;BME280;61690;51.824;6.306;2023-04-28T12:19:55;100909.91;;;19.69;48.27
73455;BME280;61690;51.824;6.306;2023-04-28T12:22:23;100906.34;;;19.70;48.46
73455;BME280;61690;51.824;6.306;2023-04-28T12:25:09;100886.00;;;19.72;47.83
73455;BME280;61690;51.824;6.306;2023-04-28T12:28:01;100901.84;;;19.72;48.32
73455;BME280;61690;51.824;6.306;2023-04-28T12:30:28;100905.09;;;19.75;48.66
73455;BME280;61690;51.824;6.306;2023-04-28T12:32:54;100897.81;;;19.79;48.46
73455;BME280;61690;51.824;6.306;2023-04-28T12:35:21;100896.00;;;19.80;48.87
73455;BME280;61690;51.824;6.306;2023-04-28T12:37:48;100901.78;;;19.85;48.85
73455;BME280;61690;51.824;6.306;2023-04-28T12:40:13;100891.75;;;19.90;48.90
73455;BME280;61690;51.824;6.306;2023-04-28T12:42:40;100896.00;;;19.92;49.07
73455;BME280;61690;51.824;6.306;2023-04-28T12:45:06;100886.16;;;19.94;48.71
73455;BME280;61690;51.824;6.306;2023-04-28T12:47:32;100895.03;;;19.93;49.06
73455;BME280;61690;51.824;6.306;2023-04-28T12:49:59;100895.66;;;19.97;49.26
73455;BME280;61690;51.824;6.306;2023-04-28T12:52:27;100888.56;;;19.97;49.25
73455;BME280;61690;51.824;6.306;2023-04-28T12:54:52;100884.47;;;19.93;49.30
73455;BME280;61690;51.824;6.306;2023-04-28T12:57:18;100874.47;;;19.86;48.50
73455;BME280;61690;51.824;6.306;2023-04-28T12:59:50;100887.13;;;19.81;48.36
73455;BME280;61690;51.824;6.306;2023-04-28T13:02:17;100881.00;;;19.80;47.89
73455;BME280;61690;51.824;6.306;2023-04-28T13:04:43;100887.47;;;19.76;47.64
73455;BME280;61690;51.824;6.306;2023-04-28T13:07:16;100888.31;;;19.76;47.53
73455;BME280;61690;51.824;6.306;2023-04-28T13:09:43;100886.19;;;19.82;47.78
73455;BME280;61690;51.824;6.306;2023-04-28T13:12:09;100899.91;;;19.87;47.75
73455;BME280;61690;51.824;6.306;2023-04-28T13:14:36;100893.03;;;19.84;47.87